createdAt,value
2017-03-20T00:00:01.734Z,10.4
2017-03-20T00:05:01.624Z,10.4
2017-03-20T00:10:01.337Z,10.4
2017-03-20T00:15:02.074Z,10.4
2017-03-20T00:20:02.072Z,10.4
2017-03-20T00:25:02.021Z,10.4
2017-03-20T00:30:01.904Z,10.4
2017-03-20T00:35:01.992Z,10.4
2017-03-20T00:40:01.674Z,10.4
2017-03-20T00:45:01.587Z,10.4
2017-03-20T00:50:01.730Z,10.4
2017-03-20T00:55:01.500Z,10.4
2017-03-20T01:00:01.343Z,10.4
2017-03-20T01:05:01.669Z,10.3
2017-03-20T01:10:01.302Z,10.3
2017-03-20T01:15:01.186Z,10.3
2017-03-20T01:20:01.467Z,10.3
2017-03-20T01:25:01.272Z,10.3
2017-03-20T01:30:01.446Z,10.3
2017-03-20T01:35:01.721Z,10.3
2017-03-20T01:40:01.793Z,10.3
2017-03-20T01:45:02.000Z,10.3
2017-03-20T01:50:01.335Z,10.3
2017-03-20T01:55:02.047Z,10.4
2017-03-20T02:00:01.840Z,10.4
2017-03-20T02:05:12.070Z,10.4
2017-03-20T02:10:02.032Z,10.4
2017-03-20T02:15:01.783Z,10.4
2017-03-20T02:20:02.005Z,10.3
2017-03-20T02:25:01.798Z,10.4
2017-03-20T02:30:01.533Z,10.4
2017-03-20T02:35:01.854Z,10.3
2017-03-20T02:40:01.753Z,10.3
2017-03-20T02:45:01.644Z,10.3
2017-03-20T02:50:01.552Z,10.3
2017-03-20T02:55:01.204Z,10.2
2017-03-20T03:00:01.391Z,10.2
2017-03-20T03:05:01.270Z,10.2
2017-03-20T03:10:01.574Z,10.2
2017-03-20T03:15:01.834Z,10.2
2017-03-20T03:20:01.708Z,10.2
2017-03-20T03:25:01.602Z,10.2
2017-03-20T03:30:02.159Z,10.1
2017-03-20T03:35:02.071Z,10.1
2017-03-20T03:40:01.221Z,10.1
2017-03-20T03:45:01.664Z,10
2017-03-20T03:50:01.788Z,10
2017-03-20T03:55:01.793Z,10
2017-03-20T04:00:01.392Z,10
2017-03-20T04:05:01.355Z,10
2017-03-20T04:10:02.012Z,10
2017-03-20T04:15:01.398Z,10
2017-03-20T04:20:01.542Z,10
2017-03-20T04:25:01.937Z,10
2017-03-20T04:30:02.062Z,10
2017-03-20T04:35:01.460Z,10
2017-03-20T04:40:02.148Z,10
2017-03-20T04:45:01.962Z,10
2017-03-20T04:50:02.170Z,10
2017-03-20T04:55:01.912Z,10
2017-03-20T05:00:02.126Z,10
2017-03-20T05:05:01.925Z,10
2017-03-20T05:10:01.773Z,10
2017-03-20T05:15:01.600Z,10
2017-03-20T05:20:02.186Z,10
2017-03-20T05:25:01.375Z,10
2017-03-20T05:30:01.734Z,10
2017-03-20T05:35:01.805Z,10
2017-03-20T05:40:01.507Z,10
2017-03-20T05:45:02.162Z,10
2017-03-20T05:50:01.173Z,10
2017-03-20T05:55:01.964Z,10.1
2017-03-20T06:00:01.203Z,10
2017-03-20T06:05:02.071Z,10.1
2017-03-20T06:10:02.193Z,10.1
2017-03-20T06:15:01.949Z,10.1
2017-03-20T06:20:02.043Z,10.1
2017-03-20T06:25:01.385Z,10.1
2017-03-20T06:30:01.853Z,10.2
2017-03-20T06:35:01.615Z,10.2
2017-03-20T06:40:01.517Z,10.2
2017-03-20T06:45:02.113Z,10.3
2017-03-20T06:50:01.304Z,10.2
2017-03-20T06:55:01.983Z,10.2
2017-03-20T07:00:02.164Z,10.2
2017-03-20T07:05:01.986Z,10.2
2017-03-20T07:10:02.050Z,10.2
2017-03-20T07:15:02.281Z,10.3
2017-03-20T07:20:01.666Z,10.4
2017-03-20T07:25:02.161Z,10.4
2017-03-20T07:30:01.618Z,10.4
2017-03-20T07:35:01.915Z,10.5
2017-03-20T07:40:01.756Z,10.5
2017-03-20T07:45:01.582Z,10.5
2017-03-20T07:50:01.175Z,10.5
2017-03-20T07:55:01.913Z,10.6
2017-03-20T08:00:02.110Z,10.6
2017-03-20T08:05:01.210Z,10.7
2017-03-20T08:10:01.575Z,10.7
2017-03-20T08:15:02.048Z,10.7
2017-03-20T08:20:01.181Z,10.7
2017-03-20T08:25:02.178Z,10.7
2017-03-20T08:30:01.524Z,10.7
2017-03-20T08:35:01.934Z,10.8
2017-03-20T08:40:02.099Z,10.8
2017-03-20T08:45:01.788Z,10.8
2017-03-20T08:50:01.564Z,10.8
2017-03-20T08:55:01.324Z,10.8
2017-03-20T09:00:01.592Z,10.8
2017-03-20T09:05:01.888Z,10.8
2017-03-20T09:10:02.227Z,10.8
2017-03-20T09:15:01.511Z,10.9
2017-03-20T09:20:01.649Z,10.9
2017-03-20T09:25:01.699Z,10.9
2017-03-20T09:30:02.150Z,10.9
2017-03-20T09:35:02.011Z,11
2017-03-20T09:40:01.193Z,11
2017-03-20T09:45:01.766Z,11
2017-03-20T09:50:01.397Z,11
2017-03-20T09:55:01.465Z,11
2017-03-20T10:00:01.676Z,11.1
2017-03-20T10:05:02.169Z,11.2
2017-03-20T10:10:02.026Z,11.1
2017-03-20T10:15:01.428Z,11.1
2017-03-20T10:20:01.992Z,11.2
2017-03-20T10:25:01.191Z,11.1
2017-03-20T10:30:01.471Z,11.2
2017-03-20T10:35:02.162Z,11.2
2017-03-20T10:40:01.959Z,11.2
2017-03-20T10:45:01.741Z,11.2
2017-03-20T10:50:01.350Z,11.2
2017-03-20T10:55:01.490Z,11.2
2017-03-20T11:00:01.715Z,11.2
2017-03-20T11:05:01.604Z,11.2
2017-03-20T11:10:01.788Z,11.3
2017-03-20T11:15:01.914Z,11.2
2017-03-20T11:20:02.231Z,11.3
2017-03-20T11:25:01.197Z,11.4
2017-03-20T11:30:01.425Z,11.4
2017-03-20T11:35:01.314Z,11.5
2017-03-20T11:40:01.204Z,11.5
2017-03-20T11:45:01.748Z,11.6
2017-03-20T11:50:02.068Z,11.6
2017-03-20T11:55:01.983Z,11.7
2017-03-20T12:00:02.158Z,11.8
2017-03-20T12:05:01.820Z,11.8
2017-03-20T12:10:01.983Z,11.9
2017-03-20T12:15:01.920Z,11.9
2017-03-20T12:20:02.197Z,11.9
2017-03-20T12:25:01.411Z,12
2017-03-20T12:30:01.864Z,12.1
2017-03-20T12:35:01.991Z,12.1
2017-03-20T12:40:02.133Z,12.1
2017-03-20T12:45:01.950Z,12.2
2017-03-20T12:50:01.380Z,12.2
2017-03-20T12:55:01.922Z,12.2
2017-03-20T13:00:01.525Z,12.2
2017-03-20T13:05:02.136Z,12.2
2017-03-20T13:10:01.478Z,12.1
2017-03-20T13:15:01.466Z,12.1
2017-03-20T13:20:01.742Z,12.1
2017-03-20T13:25:01.814Z,12.1
2017-03-20T13:30:02.169Z,12.1
2017-03-20T13:35:01.436Z,12.1
2017-03-20T13:40:02.153Z,12.1
2017-03-20T13:45:01.992Z,12.1
2017-03-20T13:50:01.634Z,12.1
2017-03-20T13:55:01.982Z,12.1
2017-03-20T14:00:01.350Z,12.1
2017-03-20T14:05:01.481Z,12.2
2017-03-20T14:10:01.786Z,12.1
2017-03-20T14:15:01.333Z,12.3
2017-03-20T14:20:01.647Z,12.4
2017-03-20T14:25:02.097Z,12.4
2017-03-20T14:30:02.081Z,12.4
2017-03-20T14:35:01.539Z,12.4
2017-03-20T14:40:01.240Z,12.5
2017-03-20T14:45:01.455Z,12.5
2017-03-20T14:50:01.929Z,12.5
2017-03-20T14:55:01.744Z,12.5
2017-03-20T15:00:01.492Z,12.5
2017-03-20T15:05:02.048Z,12.5
2017-03-20T15:10:02.099Z,12.4
2017-03-20T15:15:01.273Z,12.3
2017-03-20T15:20:01.606Z,12.3
2017-03-20T15:25:01.590Z,12.3
2017-03-20T15:30:01.753Z,12.3
2017-03-20T15:35:02.023Z,12.3
2017-03-20T15:40:02.243Z,12.3
2017-03-20T15:45:01.549Z,12.2
2017-03-20T15:50:02.018Z,12.2
2017-03-20T15:55:02.044Z,12.3
2017-03-20T16:00:01.853Z,12.2
2017-03-20T16:05:01.541Z,12.2
2017-03-20T16:10:02.022Z,12.2
2017-03-20T16:15:01.593Z,12.3
2017-03-20T16:20:02.157Z,12.3
2017-03-20T16:25:02.129Z,12.3
2017-03-20T16:30:01.943Z,12.3
2017-03-20T16:35:01.528Z,12.3
2017-03-20T16:40:01.318Z,12.3
2017-03-20T16:45:01.192Z,12.3
2017-03-20T16:50:01.508Z,12.3
2017-03-20T16:55:01.289Z,12.3
2017-03-20T17:00:02.118Z,12.3
2017-03-20T17:05:01.741Z,12.3
2017-03-20T17:10:01.652Z,12.3
2017-03-20T17:15:01.706Z,12.4
2017-03-20T17:20:01.910Z,12.4
2017-03-20T17:25:01.866Z,12.3
2017-03-20T17:30:01.732Z,12.3
2017-03-20T17:35:02.129Z,12.3
2017-03-20T17:40:01.821Z,12.2
2017-03-20T17:45:01.461Z,12.2
2017-03-20T17:50:01.256Z,12.1
2017-03-20T17:55:01.891Z,12
2017-03-20T18:00:02.175Z,12
2017-03-20T18:05:01.794Z,12
2017-03-20T18:10:01.850Z,11.9
2017-03-20T18:15:02.160Z,11.8
2017-03-20T18:20:01.446Z,11.8
2017-03-20T18:25:01.527Z,11.8
2017-03-20T18:30:01.341Z,11.7
2017-03-20T18:35:01.444Z,11.7
2017-03-20T18:40:01.975Z,11.7
2017-03-20T18:45:01.522Z,11.7
2017-03-20T18:50:01.931Z,11.7
2017-03-20T18:55:01.535Z,11.6
2017-03-20T19:00:02.051Z,11.7
2017-03-20T19:05:01.763Z,11.7
2017-03-20T19:10:02.006Z,11.6
2017-03-20T19:15:01.648Z,11.6
2017-03-20T19:20:01.722Z,11.6
2017-03-20T19:25:02.388Z,11.6
2017-03-20T19:30:01.840Z,11.6
2017-03-20T19:35:01.636Z,11.6
2017-03-20T19:40:02.020Z,11.6
2017-03-20T19:45:01.654Z,11.6
2017-03-20T19:50:02.190Z,11.6
2017-03-20T19:55:02.034Z,11.6
2017-03-20T20:00:01.810Z,11.6
2017-03-20T20:05:01.875Z,11.6
2017-03-20T20:10:02.179Z,11.6
2017-03-20T20:15:01.910Z,11.6
2017-03-20T20:20:01.613Z,11.6
2017-03-20T20:25:02.168Z,11.6
2017-03-20T20:30:01.841Z,11.6
2017-03-20T20:35:01.563Z,11.6
2017-03-20T20:40:01.909Z,11.6
2017-03-20T20:45:02.201Z,11.6
2017-03-20T20:50:03.064Z,11.6
2017-03-20T20:55:01.992Z,11.6
2017-03-20T21:00:01.747Z,11.6
2017-03-20T21:05:01.782Z,11.6
2017-03-20T21:10:02.122Z,11.6
2017-03-20T21:15:01.937Z,11.7
2017-03-20T21:20:02.180Z,11.7
2017-03-20T21:25:02.164Z,11.7
2017-03-20T21:30:01.865Z,11.7
2017-03-20T21:35:01.793Z,11.7
2017-03-20T21:40:02.123Z,11.7
2017-03-20T21:45:01.582Z,11.7
2017-03-20T21:50:01.529Z,11.7
2017-03-20T21:55:01.388Z,11.7
2017-03-20T22:00:02.127Z,11.7
2017-03-20T22:05:01.373Z,11.6
2017-03-20T22:10:01.256Z,11.4
2017-03-20T22:15:01.856Z,11.2
2017-03-20T22:20:01.725Z,11.1
2017-03-20T22:25:01.887Z,11
2017-03-20T22:30:01.526Z,10.9
2017-03-20T22:35:01.769Z,10.9
2017-03-20T22:40:02.027Z,10.8
2017-03-20T22:45:02.196Z,10.8
2017-03-20T22:50:02.017Z,10.8
2017-03-20T22:55:04.212Z,10.8
2017-03-20T23:00:01.213Z,10.8
2017-03-20T23:05:01.775Z,10.8
2017-03-20T23:10:01.631Z,10.7
2017-03-20T23:15:01.902Z,10.7
2017-03-20T23:20:01.653Z,10.6
2017-03-20T23:25:01.708Z,10.5
2017-03-20T23:30:01.441Z,10.5
2017-03-20T23:35:01.487Z,10.4
2017-03-20T23:40:01.330Z,10.4
2017-03-20T23:45:01.796Z,10.4
2017-03-20T23:50:02.154Z,10.4
2017-03-20T23:55:01.867Z,10.4
